Doylestown, PA

7:31 PM EST on December 28, 2014 (GMT -0500)
Doylestown | Change Station
CLOSE
Current Station
Airport
Location: Doylestown,
Elevation: 394 ft
Nearby Weather Stations

Elev 394 ft 40.33 °N, 75.12 °W | Updated 37 minutes ago

Overcast
Overcast
47 °F
Feels Like 47 °F
N
4
Wind Variable Wind from West

Today
High -- | Low -- °F
--% Chance of Precip.
Yesterday
High -- | Low -- °F
Precip. -- in
7:22 AM 4:41 PM
First Quarter, 53% visible
Pressure 30.00 in
Visibility 10.0 miles
Clouds Scattered Clouds 6500 ft
Overcast 10000 ft
Dew Point 41 °F
Humidity 80%
Rainfall 0.02 in
Snow Depth Not available.
UV 0 out of 12
Pollen .10 out of 12
Air Quality Not available.
Flu Activity Not available.
METAR KDYL 282354Z AUTO 27003KT 10SM SCT065 OVC100 08/05 A2999 RMK AO2 RAB05E17 SLP159 P0000 60000 T00830050 10111 20083 51016

More Conditions Fewer Conditions

Pressure 30.00 in
Visibility 10.0 miles
Clouds Scattered Clouds 6500 ft
Overcast 10000 ft
Dew Point 41 °F
Humidity 80%
Rainfall 0.02 in
Snow Depth Not available.
UV 0 out of 12
Pollen .10 out of 12
Air Quality Not available.
Flu Activity Not available.
METAR KDYL 282354Z AUTO 27003KT 10SM SCT065 OVC100 08/05 A2999 RMK AO2 RAB05E17 SLP159 P0000 60000 T00830050 10111 20083 51016

More Conditions Fewer Conditions

10-Day Weather Forecast

Almanac

Astronomy

Dec. 28, 2014 Rise Set
Actual Time
Civil Twilight
Nautical Twilight
Astronomical Twilight
Moon
Length of Visible Light
Length of Day
Tomorrow will be .
, % of the Moon is Illuminated

Today's Extremes

State Highs State Lows

Community

WunderPhotos

Upload Photos

1,781,472 photos uploaded!

WunderBlogs® & News

Nearby

Air Quality

  Air Quality AQ Index Pollutant
Not available.

Snow Depth

Station Depth Elevation

Earthquake Activity

City Distance Mag. Time & Date
Minimum magnitude displayed is 2.5.

Coastal Water Temperatures

Place Temperature

Nearby Weather Stations